Time;durP1;ratioP1;P1;durP2;ratioP2;P2;SDS_P1;SDS_P2;PMS_P1;PMS_P2;Temp;Humidity;BMP_temperature;BMP_pressure;BME280_temperature;BME280_humidity;BME280_pressure;Samples;Min_cycle;Max_cycle;Signal;HPM_P1;HPM_P2
2022/04/26 03:36:43;;;;;;;21.17;10.57;;;6.40;99.90;;;;;;5074439;28;20049;-63
2022/04/26 03:39:10;;;;;;;23.10;9.50;;;6.40;99.90;;;;;;5072851;28;20045;-62
2022/04/26 03:41:37;;;;;;;19.92;9.18;;;6.40;99.90;;;;;;5073168;28;20119;-63
2022/04/26 03:44:03;;;;;;;15.82;8.57;;;6.30;99.90;;;;;;5073802;28;20065;-65
2022/04/26 03:46:29;;;;;;;19.38;8.23;;;6.30;99.90;;;;;;5072976;28;20056;-62
2022/04/26 03:48:54;;;;;;;15.40;8.23;;;6.30;99.90;;;;;;5072680;28;20086;-63
2022/04/26 03:51:20;;;;;;;17.23;7.93;;;6.30;99.90;;;;;;5039537;28;20044;-63
2022/04/26 03:53:47;;;;;;;19.50;7.30;;;6.40;99.90;;;;;;5073036;28;20059;-64
2022/04/26 03:56:13;;;;;;;18.05;7.20;;;6.30;99.90;;;;;;5056070;28;20045;-62
2022/04/26 03:58:38;;;;;;;16.30;7.45;;;6.40;99.90;;;;;;5073976;28;20434;-62
2022/04/26 04:01:04;;;;;;;15.57;7.60;;;6.30;99.90;;;;;;5072479;28;20044;-62
2022/04/26 04:03:30;;;;;;;17.40;7.70;;;6.30;99.90;;;;;;5073641;28;20428;-63
2022/04/26 04:05:56;;;;;;;12.98;6.57;;;6.30;99.90;;;;;;5073838;28;20080;-63
2022/04/26 04:08:21;;;;;;;15.40;7.45;;;6.30;99.90;;;;;;5071916;28;20482;-63
2022/04/26 04:10:47;;;;;;;21.08;7.95;;;6.30;99.90;;;;;;5072519;28;20088;-63
2022/04/26 04:13:13;;;;;;;15.70;6.90;;;6.40;99.90;;;;;;5072857;28;20044;-64
2022/04/26 04:15:39;;;;;;;20.27;7.07;;;6.40;99.90;;;;;;5073505;28;20127;-63
2022/04/26 04:19:17;;;;;;;16.88;6.55;;;6.40;99.90;;;;;;5073132;28;20089;-64
2022/04/26 04:20:52;;;;;;;15.15;6.90;;;6.40;99.90;;;;;;5072297;28;20048;-63
2022/04/26 04:23:17;;;;;;;14.30;6.72;;;6.40;99.90;;;;;;5072674;28;20513;-64
2022/04/26 04:25:43;;;;;;;10.38;5.78;;;6.40;99.90;;;;;;5072306;28;20040;-65
2022/04/26 04:28:09;;;;;;;17.42;6.53;;;6.40;99.90;;;;;;5072796;28;20041;-62
2022/04/26 04:30:34;;;;;;;14.68;6.75;;;6.40;99.90;;;;;;5073314;28;20040;-63
2022/04/26 04:33:00;;;;;;;14.95;6.13;;;6.40;99.90;;;;;;5073042;28;20052;-63
2022/04/26 04:35:25;;;;;;;17.40;6.50;;;6.40;99.90;;;;;;5072790;28;20139;-63
2022/04/26 04:37:51;;;;;;;13.65;6.00;;;6.80;99.90;;;;;;5071077;28;20040;-62
2022/04/26 04:40:17;;;;;;;15.65;6.25;;;6.40;99.90;;;;;;5071493;28;20052;-63
2022/04/26 04:42:45;;;;;;;14.20;6.40;;;6.50;99.90;;;;;;5071583;28;20509;-63
2022/04/26 04:45:10;;;;;;;16.67;5.57;;;6.50;99.90;;;;;;5072118;28;20056;-65
2022/04/26 04:47:36;;;;;;;15.15;6.63;;;6.50;99.90;;;;;;5072891;28;20040;-63
2022/04/26 04:50:02;;;;;;;16.00;6.20;;;6.40;99.90;;;;;;5055143;28;20093;-61
2022/04/26 04:52:28;;;;;;;17.58;7.18;;;6.40;99.90;;;;;;5054789;28;20052;-64
2022/04/26 04:54:54;;;;;;;20.25;7.38;;;6.40;99.90;;;;;;5071538;28;20048;-63
2022/04/26 04:57:19;;;;;;;18.92;7.70;;;6.40;99.90;;;;;;5054635;28;20056;-63
2022/04/26 04:59:45;;;;;;;11.52;6.10;;;6.60;99.90;;;;;;5072706;28;20048;-62
2022/04/26 05:02:11;;;;;;;11.45;5.80;;;6.50;99.90;;;;;;5072298;28;20040;-62
2022/04/26 05:04:36;;;;;;;13.77;6.28;;;6.60;99.90;;;;;;5071575;28;20429;-62
2022/04/26 05:07:03;;;;;;;14.90;5.95;;;6.60;99.90;;;;;;5072334;28;20055;-64
2022/04/26 05:09:29;;;;;;;17.25;7.22;;;6.70;99.90;;;;;;5071979;28;20054;-63
2022/04/26 05:11:55;;;;;;;9.60;5.40;;;6.70;99.90;;;;;;5071187;28;20456;-64
2022/04/26 05:14:20;;;;;;;12.68;5.63;;;6.70;99.90;;;;;;5037866;28;20074;-63
2022/04/26 05:16:47;;;;;;;14.82;5.82;;;6.80;99.90;;;;;;5072003;28;20041;-62
2022/04/26 05:19:12;;;;;;;13.30;5.88;;;6.90;99.90;;;;;;5053854;28;20087;-63
2022/04/26 05:21:38;;;;;;;12.93;5.85;;;6.90;99.90;;;;;;5071920;28;20084;-62
2022/04/26 05:26:48;;;;;;;15.13;5.32;;;7.50;99.90;;;;;;5071961;28;20402;-64
2022/04/26 05:29:14;;;;;;;13.23;5.72;;;8.10;99.90;;;;;;5053589;28;20041;-64
2022/04/26 05:31:40;;;;;;;11.48;4.60;;;8.70;99.90;;;;;;5072044;28;20044;-63
2022/04/26 05:34:05;;;;;;;10.73;4.63;;;9.30;99.90;;;;;;5071640;28;20048;-63
2022/04/26 05:36:31;;;;;;;9.38;4.43;;;9.90;99.90;;;;;;5069866;28;20072;-63
2022/04/26 05:38:59;;;;;;;8.45;4.32;;;10.50;99.90;;;;;;5054279;28;20049;-63
2022/04/26 05:41:25;;;;;;;8.43;3.75;;;11.10;99.90;;;;;;5070504;28;20054;-62
2022/04/26 05:43:50;;;;;;;10.43;4.40;;;11.70;99.90;;;;;;5053979;28;20132;-65
2022/04/26 05:46:16;;;;;;;9.48;4.07;;;12.20;99.90;;;;;;5053588;28;20052;-64
2022/04/26 05:48:42;;;;;;;11.90;3.97;;;12.60;99.90;;;;;;5071452;28;20131;-63
2022/04/26 05:51:08;;;;;;;10.10;3.88;;;13.10;99.90;;;;;;5071166;28;20080;-63
2022/04/26 05:53:35;;;;;;;11.60;3.90;;;13.40;99.90;;;;;;5071203;28;20080;-64
2022/04/26 05:56:03;;;;;;;14.38;4.57;;;13.80;99.90;;;;;;5071597;28;20056;-63
2022/04/26 05:58:29;;;;;;;8.40;3.85;;;13.80;99.90;;;;;;5053810;28;20047;-63
2022/04/26 06:00:54;;;;;;;12.48;3.83;;;14.00;99.90;;;;;;5053706;28;20048;-63
2022/04/26 06:03:21;;;;;;;14.35;4.35;;;14.40;99.90;;;;;;5071063;28;20179;-64
2022/04/26 06:05:47;;;;;;;10.45;3.88;;;14.70;99.90;;;;;;5071469;28;20049;-64
2022/04/26 06:08:12;;;;;;;11.48;3.95;;;14.90;99.90;;;;;;5070088;28;20055;-68
2022/04/26 06:10:42;;;;;;;8.52;3.40;;;14.90;99.90;;;;;;5070093;28;20500;-62
2022/04/26 06:13:08;;;;;;;10.10;3.00;;;14.90;99.90;;;;;;5070297;28;20098;-63
2022/04/26 06:15:34;;;;;;;7.72;2.78;;;14.80;99.90;;;;;;5053129;28;20263;-62
2022/04/26 06:18:00;;;;;;;12.45;3.28;;;14.00;99.90;;;;;;5071074;28;20051;-64
2022/04/26 06:20:26;;;;;;;13.15;3.47;;;13.20;99.90;;;;;;5069817;28;20044;-64
2022/04/26 06:22:53;;;;;;;9.02;3.50;;;12.40;99.90;;;;;;5071247;28;20084;-63
2022/04/26 06:25:19;;;;;;;10.68;3.20;;;11.80;99.90;;;;;;5070696;28;20127;-62
2022/04/26 06:27:45;;;;;;;9.02;3.50;;;11.30;99.90;;;;;;5071063;28;20132;-63
2022/04/26 06:30:11;;;;;;;7.85;3.20;;;11.00;99.90;;;;;;5069925;28;20106;-63
2022/04/26 06:32:37;;;;;;;13.68;3.20;;;10.70;99.90;;;;;;5070703;28;20048;-63
2022/04/26 06:35:03;;;;;;;10.35;3.30;;;10.90;99.90;;;;;;5070149;28;20041;-63
2022/04/26 06:37:29;;;;;;;12.80;3.50;;;11.50;99.90;;;;;;5070494;28;20045;-64
2022/04/26 06:39:55;;;;;;;9.98;3.30;;;12.50;99.90;;;;;;5070960;28;20085;-63
2022/04/26 06:42:21;;;;;;;8.82;2.83;;;13.50;99.90;;;;;;5070607;28;20433;-63
2022/04/26 06:44:46;;;;;;;6.80;2.85;;;14.00;99.90;;;;;;5070640;28;20091;-65
2022/04/26 06:47:12;;;;;;;7.38;2.65;;;13.80;99.90;;;;;;5069781;28;20049;-64
2022/04/26 06:49:38;;;;;;;10.68;3.08;;;13.40;99.90;;;;;;5052459;28;20097;-63
2022/04/26 06:52:04;;;;;;;8.05;2.78;;;13.00;99.90;;;;;;5069208;28;20059;-63
2022/04/26 06:54:29;;;;;;;9.25;3.30;;;12.70;99.90;;;;;;5070318;28;20044;-62
2022/04/26 06:56:55;;;;;;;8.68;2.95;;;12.50;99.90;;;;;;5070659;28;20528;-64
2022/04/26 06:59:21;;;;;;;9.07;3.05;;;12.20;99.90;;;;;;5070626;28;20517;-69
2022/04/26 07:01:52;;;;;;;9.27;3.08;;;11.80;99.90;;;;;;5056455;28;20373;-64
2022/04/26 07:04:19;;;;;;;8.10;2.88;;;11.50;99.90;;;;;;5074779;28;20149;-62
2022/04/26 07:06:46;;;;;;;10.35;2.80;;;11.30;99.90;;;;;;5073436;28;20190;-64
2022/04/26 07:09:12;;;;;;;9.07;3.30;;;11.20;99.90;;;;;;5056666;28;20044;-63
2022/04/26 07:11:37;;;;;;;7.90;3.10;;;10.90;99.90;;;;;;5072912;28;20058;-63
2022/04/26 07:14:03;;;;;;;11.27;3.85;;;10.90;99.90;;;;;;5056951;28;20504;-62
2022/04/26 07:16:29;;;;;;;5.63;2.90;;;10.90;99.90;;;;;;5072983;28;20040;-64
2022/04/26 07:18:55;;;;;;;10.07;3.10;;;11.00;99.90;;;;;;5073586;28;20045;-64
2022/04/26 07:21:21;;;;;;;6.90;2.78;;;11.00;99.90;;;;;;5056269;28;20040;-63
2022/04/26 07:23:47;;;;;;;11.70;3.08;;;11.10;99.90;;;;;;5074223;28;20044;-63
2022/04/26 07:26:14;;;;;;;11.40;3.40;;;11.40;99.90;;;;;;5073095;28;20101;-61
2022/04/26 07:28:39;;;;;;;6.85;3.17;;;11.80;99.90;;;;;;5072786;28;20053;-62
2022/04/26 07:31:05;;;;;;;7.90;3.53;;;12.00;99.90;;;;;;5073125;28;20064;-62
2022/04/26 07:36:15;;;;;;;11.25;3.80;;;12.40;99.90;;;;;;5074378;28;20053;-63
2022/04/26 07:38:41;;;;;;;7.90;3.22;;;12.60;99.90;;;;;;5072466;28;20040;-63
2022/04/26 07:41:07;;;;;;;9.55;3.67;;;12.40;99.90;;;;;;5073968;28;20049;-62
2022/04/26 07:43:34;;;;;;;8.90;2.97;;;12.30;99.90;;;;;;5073453;28;20052;-62
2022/04/26 07:45:59;;;;;;;10.02;3.30;;;12.60;99.90;;;;;;5074185;28;20096;-65
2022/04/26 07:48:26;;;;;;;10.25;3.58;;;12.50;99.90;;;;;;5072377;28;20048;-69
2022/04/26 07:50:52;;;;;;;9.63;3.42;;;12.40;99.90;;;;;;5074083;28;20059;-63
2022/04/26 07:53:17;;;;;;;7.50;2.80;;;12.40;99.90;;;;;;5073950;28;20052;-65
2022/04/26 07:55:43;;;;;;;9.50;3.35;;;12.50;99.90;;;;;;5072414;28;20131;-64
2022/04/26 07:58:10;;;;;;;8.05;3.42;;;12.30;99.90;;;;;;5073929;28;20037;-63
2022/04/26 08:00:36;;;;;;;7.72;3.15;;;12.40;99.90;;;;;;5072092;28;20449;-62
2022/04/26 08:03:03;;;;;;;8.68;3.35;;;13.10;99.90;;;;;;5072531;28;20040;-62
2022/04/26 08:05:30;;;;;;;8.85;3.28;;;13.50;99.90;;;;;;5073549;28;20237;-68
2022/04/26 08:07:56;;;;;;;6.63;3.10;;;13.60;99.90;;;;;;5073619;28;20040;-63
2022/04/26 08:10:22;;;;;;;8.20;3.00;;;13.30;99.90;;;;;;5072627;28;20110;-63
2022/04/26 08:12:47;;;;;;;9.43;3.00;;;13.20;99.90;;;;;;5071497;28;20199;-62
2022/04/26 08:15:14;;;;;;;7.72;2.80;;;12.70;99.90;;;;;;5073336;28;20091;-64
2022/04/26 08:17:41;;;;;;;9.10;2.90;;;12.80;99.90;;;;;;5071993;28;20068;-62
2022/04/26 08:20:10;;;;;;;6.68;3.20;;;12.70;99.90;;;;;;5073574;28;20062;-62
2022/04/26 08:22:37;;;;;;;6.10;2.70;;;12.60;99.90;;;;;;5072944;28;20116;-62
2022/04/26 08:27:47;;;;;;;;;;;12.80;99.90;;;;;;5072226;28;20057;-62
2022/04/26 08:30:14;;;;;;;8.02;2.83;;;12.60;99.90;;;;;;5073322;28;19985;-63
2022/04/26 08:32:42;;;;;;;7.47;2.88;;;12.50;99.90;;;;;;5072999;28;20052;-62
2022/04/26 08:35:10;;;;;;;8.20;2.95;;;12.90;99.90;;;;;;5072090;28;20109;-62
2022/04/26 08:37:37;;;;;;;7.05;2.83;;;13.10;99.90;;;;;;5072975;28;20037;-62
2022/04/26 08:40:05;;;;;;;8.80;2.83;;;13.40;99.90;;;;;;5055069;28;20059;-62
2022/04/26 08:42:41;;;;;;;7.00;2.63;;;13.40;99.90;;;;;;5073123;28;20045;-63
2022/04/26 08:45:09;;;;;;;7.88;3.10;;;13.30;99.90;;;;;;5071585;28;20048;-62
2022/04/26 08:53:05;;;;;;;6.57;2.58;;;15.20;99.90;;;;;;5072228;28;19928;-62
2022/04/26 08:55:31;;;;;;;7.43;3.00;;;15.50;98.60;;;;;;5071608;28;20043;-62
2022/04/26 08:58:00;;;;;;;7.25;2.75;;;15.20;98.10;;;;;;5072368;28;20044;-63
2022/04/26 09:00:26;;;;;;;4.22;2.30;;;14.90;98.30;;;;;;5054636;28;20044;-63
2022/04/26 09:03:07;;;;;;;6.75;2.60;;;14.70;98.70;;;;;;5071852;28;20040;-66
2022/04/26 09:05:33;;;;;;;7.70;2.72;;;14.60;98.60;;;;;;5054484;28;20132;-62
2022/04/26 09:07:59;;;;;;;7.07;2.70;;;14.50;98.80;;;;;;5070676;28;20041;-62
2022/04/26 09:10:26;;;;;;;5.35;2.50;;;14.10;98.80;;;;;;5054184;28;20048;-62
2022/04/26 09:13:10;;;;;;;7.75;2.90;;;13.60;99.40;;;;;;5071699;28;20406;-65
2022/04/26 09:15:42;;;;;;;6.18;3.55;;;13.30;99.90;;;;;;5072083;28;20123;-69
2022/04/26 09:18:31;;;;;;;6.25;2.75;;;13.70;99.90;;;;;;5072000;28;20048;-63
2022/04/26 09:21:10;;;;;;;6.20;2.80;;;14.90;99.40;;;;;;5060072;28;20383;-63
2022/04/26 09:23:38;;;;;;;6.43;2.70;;;15.70;98.00;;;;;;5071900;28;20456;-63
2022/04/26 09:26:09;;;;;;;4.45;2.70;;;16.30;95.90;;;;;;5072181;28;20044;-62
2022/04/26 09:28:44;;;;;;;8.85;2.80;;;16.70;95.40;;;;;;5071083;28;20052;-63
2022/04/26 09:31:23;;;;;;;;;;;15.70;95.40;;;;;;5070876;28;20048;-62
2022/04/26 09:33:52;;;;;;;4.55;2.38;;;15.10;96.40;;;;;;5071139;28;20000;-63
2022/04/26 09:36:20;;;;;;;6.30;2.70;;;15.30;97.10;;;;;;5071411;28;20541;-63
2022/04/26 09:38:55;;;;;;;4.53;2.42;;;15.30;95.90;;;;;;5071549;28;20047;-60
2022/04/26 09:41:22;;;;;;;6.25;2.65;;;15.10;96.40;;;;;;5071864;28;20051;-61
2022/04/26 09:43:56;;;;;;;8.07;2.95;;;15.00;96.40;;;;;;5053618;28;20114;-61
2022/04/26 09:46:23;;;;;;;8.98;2.58;;;14.70;96.30;;;;;;5071924;28;20048;-61
2022/04/26 09:48:51;;;;;;;5.40;2.70;;;14.20;97.00;;;;;;5070289;28;20123;-60
2022/04/26 09:51:17;;;;;;;7.57;2.88;;;13.80;97.40;;;;;;5070486;28;20113;-63
2022/04/26 09:53:42;;;;;;;7.03;2.92;;;13.40;97.90;;;;;;5069747;28;20048;-65
2022/04/26 09:56:10;;;;;;;5.85;2.65;;;13.50;98.30;;;;;;5071592;28;20060;-62
2022/04/26 09:58:38;;;;;;;5.30;2.47;;;13.70;97.80;;;;;;5071460;28;20112;-62
2022/04/26 10:01:06;;;;;;;9.63;2.95;;;14.00;97.50;;;;;;5071420;28;20386;-62
2022/04/26 10:03:36;;;;;;;5.65;2.60;;;14.10;96.30;;;;;;5054621;28;20394;-62
2022/04/26 10:06:07;;;;;;;6.47;2.42;;;14.20;97.00;;;;;;5071390;28;20051;-63
2022/04/26 10:08:35;;;;;;;8.00;3.00;;;14.10;97.20;;;;;;5071570;28;20070;-62
2022/04/26 10:11:02;;;;;;;7.32;2.63;;;14.10;97.20;;;;;;5071364;28;20052;-62
2022/04/26 10:13:38;;;;;;;5.18;2.60;;;14.30;97.30;;;;;;5070731;28;20461;-61
2022/04/26 10:16:06;;;;;;;6.13;2.85;;;14.10;97.20;;;;;;5071496;28;20084;-62
2022/04/26 10:18:35;;;;;;;7.82;2.65;;;14.20;97.70;;;;;;5071662;28;20418;-63
2022/04/26 10:21:03;;;;;;;8.90;2.80;;;14.20;97.50;;;;;;5071716;28;20386;-62
2022/04/26 10:23:48;;;;;;;6.97;3.00;;;14.00;97.70;;;;;;5071541;28;20040;-62
2022/04/26 10:26:14;;;;;;;6.85;2.78;;;14.20;97.70;;;;;;5071545;28;20041;-62
2022/04/26 10:29:08;;;;;;;6.97;2.40;;;14.30;96.60;;;;;;5071541;28;20051;-64
2022/04/26 10:31:41;;;;;;;6.45;2.60;;;14.40;95.80;;;;;;5060964;28;20478;-62
2022/04/26 10:34:16;;;;;;;6.28;2.53;;;14.50;95.90;;;;;;5070922;28;20060;-63
2022/04/26 10:36:54;;;;;;;4.70;2.13;;;14.30;95.40;;;;;;5071263;28;20052;-61
2022/04/26 10:39:23;;;;;;;6.47;2.50;;;14.40;95.60;;;;;;5071341;28;20113;-62
2022/04/26 10:41:49;;;;;;;6.82;2.92;;;14.30;96.10;;;;;;5070841;28;20097;-61
2022/04/26 10:44:21;;;;;;;6.80;2.45;;;14.10;96.00;;;;;;5070991;28;20143;-62
2022/04/26 10:47:07;;;;;;;5.40;2.65;;;14.10;96.50;;;;;;5071125;28;20139;-63
2022/04/26 10:49:33;;;;;;;6.05;2.60;;;14.10;96.50;;;;;;5071267;28;20098;-62
2022/04/26 10:52:24;;;;;;;7.07;2.50;;;14.20;96.70;;;;;;5071113;28;20052;-62
2022/04/26 10:55:07;;;;;;;8.55;2.90;;;14.20;96.30;;;;;;5070994;28;20135;-62
2022/04/26 10:57:42;;;;;;;5.28;2.40;;;14.30;95.90;;;;;;5071369;28;20439;-62
2022/04/26 11:00:41;;;;;;;7.15;2.55;;;14.40;95.20;;;;;;5071222;28;20071;-63
2022/04/26 11:03:08;;;;;;;6.18;2.30;;;14.60;95.10;;;;;;5026479;28;20048;-63
2022/04/26 11:05:34;;;;;;;6.47;2.80;;;14.40;94.70;;;;;;5071069;28;20048;-61
2022/04/26 11:08:04;;;;;;;5.25;2.80;;;14.40;95.50;;;;;;5069641;28;20044;-62
2022/04/26 11:11:00;;;;;;;6.55;2.58;;;14.30;95.80;;;;;;5071259;28;20090;-62
2022/04/26 11:13:21;;;;;;;6.93;2.70;;;14.40;95.40;;;;;;5070898;28;20048;-61
2022/04/26 11:15:47;;;;;;;8.43;3.10;;;14.40;95.30;;;;;;5069910;28;20477;-61
2022/04/26 11:18:20;;;;;;;6.70;2.65;;;14.40;95.20;;;;;;5069730;28;20060;-63
2022/04/26 11:20:47;;;;;;;8.75;2.50;;;14.30;94.10;;;;;;5071132;28;20477;-63
2022/04/26 11:28:50;;;;;;;6.30;3.03;;;14.20;95.00;;;;;;5070931;28;20056;-61
2022/04/26 11:31:16;;;;;;;5.22;2.60;;;14.10;95.10;;;;;;5070637;28;20051;-62
2022/04/26 11:33:49;;;;;;;6.95;2.47;;;14.00;95.20;;;;;;5069895;28;20131;-61
2022/04/26 11:36:15;;;;;;;7.10;2.67;;;13.90;95.60;;;;;;5070647;28;20084;-63
2022/04/26 11:38:40;;;;;;;5.93;2.20;;;14.00;95.30;;;;;;5070797;28;20076;-62
2022/04/26 11:41:09;;;;;;;6.25;2.47;;;13.90;95.90;;;;;;5069436;28;20398;-61
2022/04/26 11:43:35;;;;;;;9.80;2.45;;;14.00;95.70;;;;;;5070810;28;20055;-62
2022/04/26 11:46:02;;;;;;;6.38;2.60;;;14.10;95.50;;;;;;5070372;28;20101;-63
2022/04/26 11:48:32;;;;;;;6.03;2.50;;;14.10;95.40;;;;;;5074013;28;20478;-61
2022/04/26 11:50:59;;;;;;;7.03;2.50;;;14.00;96.10;;;;;;5074151;28;20053;-62
2022/04/26 11:53:27;;;;;;;6.85;2.65;;;14.10;95.90;;;;;;5074276;28;20048;-62
2022/04/26 11:55:56;;;;;;;7.60;2.80;;;14.40;95.80;;;;;;5074394;28;20408;-62
2022/04/26 11:58:42;;;;;;;11.38;3.10;;;14.50;95.60;;;;;;5074279;28;20044;-63
2022/04/26 12:01:16;;;;;;;8.10;2.65;;;14.40;95.50;;;;;;5055317;28;20064;-61
2022/04/26 12:04:02;;;;;;;;;;;14.40;95.30;;;;;;5056949;28;20071;-62
2022/04/26 12:06:32;;;;;;;6.47;2.65;;;14.20;95.10;;;;;;5074096;28;19924;-62
2022/04/26 12:09:00;;;;;;;8.43;2.63;;;14.30;95.50;;;;;;5073585;28;20044;-62
2022/04/26 12:11:38;;;;;;;5.32;2.75;;;14.30;95.80;;;;;;5072692;28;20406;-61
2022/04/26 12:14:12;;;;;;;7.78;2.28;;;14.40;95.30;;;;;;5073577;28;20053;-62
2022/04/26 12:16:42;;;;;;;7.38;2.53;;;14.50;95.60;;;;;;5073786;28;20395;-62
2022/04/26 12:19:08;;;;;;;23.58;3.95;;;14.50;95.20;;;;;;5072336;28;20056;-61
2022/04/26 12:21:56;;;;;;;4.57;2.30;;;14.50;94.30;;;;;;5073662;28;20431;-62
2022/04/26 12:24:30;;;;;;;6.93;2.70;;;14.40;93.00;;;;;;5073309;28;20134;-64
2022/04/26 12:27:04;;;;;;;5.60;2.58;;;14.40;94.90;;;;;;5073347;28;20088;-61
2022/04/26 12:29:36;;;;;;;;;;;14.30;94.70;;;;;;5072431;28;20041;-62
2022/04/26 12:32:06;;;;;;;4.88;2.50;;;14.30;95.00;;;;;;5073511;28;20282;-63
2022/04/26 12:34:32;;;;;;;7.93;2.50;;;14.30;94.90;;;;;;5072419;28;20048;-63
2022/04/26 12:37:04;;;;;;;6.93;2.80;;;14.20;95.90;;;;;;5073321;28;20088;-64
2022/04/26 12:39:43;;;;;;;7.70;2.95;;;14.20;96.30;;;;;;5073222;28;20045;-62
2022/04/26 12:42:14;;;;;;;6.65;2.83;;;14.30;94.90;;;;;;5072851;28;20055;-61
2022/04/26 12:44:54;;;;;;;6.25;2.70;;;14.40;94.30;;;;;;5073259;28;20060;-64
2022/04/26 12:52:54;;;;;;;10.75;2.70;;;14.00;94.80;;;;;;5072009;28;20501;-61
2022/04/26 12:55:25;;;;;;;8.13;2.50;;;14.00;94.80;;;;;;5072669;28;20048;-62
2022/04/26 12:57:55;;;;;;;6.25;2.53;;;13.80;95.10;;;;;;5072007;28;20047;-63
2022/04/26 13:00:23;;;;;;;5.63;2.60;;;13.60;95.90;;;;;;5072232;28;20079;-62
2022/04/26 13:03:03;;;;;;;8.15;2.67;;;13.40;95.80;;;;;;5072660;28;20048;-62
2022/04/26 13:05:38;;;;;;;6.63;2.45;;;13.50;95.90;;;;;;5072708;28;20052;-61
2022/04/26 13:08:04;;;;;;;6.38;2.53;;;13.50;96.50;;;;;;5072272;28;20123;-67
2022/04/26 13:10:30;;;;;;;7.07;2.80;;;13.40;96.00;;;;;;5072348;28;20593;-64
2022/04/26 13:12:55;;;;;;;6.82;3.25;;;13.40;96.30;;;;;;5071638;28;20053;-62
2022/04/26 13:15:23;;;;;;;7.47;2.60;;;13.40;97.10;;;;;;5070978;28;20036;-63
2022/04/26 13:17:49;;;;;;;7.45;2.80;;;13.60;97.10;;;;;;5072527;28;20053;-62
2022/04/26 13:20:15;;;;;;;6.63;2.97;;;13.60;97.50;;;;;;5070990;28;20052;-62
2022/04/26 13:22:41;;;;;;;8.05;2.92;;;13.60;97.50;;;;;;5072475;28;20051;-64
2022/04/26 13:25:08;;;;;;;4.63;2.30;;;13.80;97.50;;;;;;5054497;28;20044;-63
2022/04/26 13:27:35;;;;;;;5.35;2.78;;;14.10;97.30;;;;;;5072206;28;20041;-62
2022/04/26 13:30:01;;;;;;;8.27;2.67;;;14.00;96.30;;;;;;5071986;28;20052;-62
2022/04/26 13:32:30;;;;;;;6.78;2.50;;;13.90;96.40;;;;;;5071732;28;20048;-63
2022/04/26 13:35:00;;;;;;;5.32;2.90;;;13.80;96.40;;;;;;5072212;28;20063;-63
2022/04/26 13:37:26;;;;;;;5.25;2.78;;;14.00;96.40;;;;;;5070389;28;20048;-62
2022/04/26 13:39:54;;;;;;;20.02;3.85;;;14.00;96.30;;;;;;5072021;28;20144;-62
2022/04/26 13:42:23;;;;;;;4.70;2.55;;;14.30;95.80;;;;;;5071695;28;20052;-62
2022/04/26 13:44:49;;;;;;;6.63;2.97;;;14.50;95.30;;;;;;5071431;28;20529;-62
2022/04/26 13:47:14;;;;;;;5.28;2.92;;;14.50;94.70;;;;;;5071545;28;20052;-63
2022/04/26 13:49:40;;;;;;;8.95;3.17;;;14.60;94.30;;;;;;5070624;28;20543;-63
2022/04/26 13:52:07;;;;;;;5.75;2.55;;;14.40;94.70;;;;;;5070559;28;20433;-63
2022/04/26 13:54:33;;;;;;;5.85;2.78;;;14.40;95.30;;;;;;5070169;28;20399;-63
2022/04/26 13:56:59;;;;;;;6.25;2.90;;;14.30;94.90;;;;;;5071683;28;20044;-62
2022/04/26 13:59:25;;;;;;;6.05;2.63;;;14.30;95.00;;;;;;5071213;28;20048;-61
2022/04/26 14:01:53;;;;;;;6.40;2.90;;;14.40;95.30;;;;;;5071444;28;20090;-63
2022/04/26 14:04:20;;;;;;;6.15;2.70;;;14.60;95.40;;;;;;5071213;28;20049;-63
2022/04/26 14:06:47;;;;;;;5.82;2.70;;;14.70;95.00;;;;;;5071754;28;20131;-63
2022/04/26 14:09:13;;;;;;;5.47;2.70;;;14.80;95.40;;;;;;5070962;28;20040;-63
2022/04/26 14:11:39;;;;;;;4.53;2.50;;;14.90;95.30;;;;;;5071492;28;20358;-62
2022/04/26 14:22:32;;;;;;;8.38;2.63;;;14.60;94.90;;;;;;5070904;28;20064;-63
2022/04/26 14:25:08;;;;;;;6.07;2.60;;;14.60;94.40;;;;;;5071625;28;20048;-62
2022/04/26 14:27:34;;;;;;;6.50;2.50;;;14.60;93.80;;;;;;5071150;28;20048;-62
2022/04/26 14:30:00;;;;;;;6.70;2.78;;;14.40;93.70;;;;;;5071289;28;20084;-62
2022/04/26 14:32:26;;;;;;;7.28;2.60;;;14.30;93.80;;;;;;5070766;28;20102;-61
2022/04/26 14:34:51;;;;;;;5.47;2.70;;;14.20;94.20;;;;;;5071072;28;20134;-63
2022/04/26 14:37:17;;;;;;;6.90;2.78;;;14.20;94.70;;;;;;5069691;28;20102;-61
2022/04/26 14:39:43;;;;;;;6.50;2.75;;;14.20;94.70;;;;;;5071417;28;20051;-64
2022/04/26 14:42:09;;;;;;;5.28;2.40;;;14.10;95.40;;;;;;5071462;28;20074;-62
2022/04/26 14:44:36;;;;;;;9.48;3.00;;;14.20;95.50;;;;;;5070725;28;20052;-62
2022/04/26 14:47:02;;;;;;;6.63;2.50;;;14.10;94.60;;;;;;5071281;28;20048;-62
2022/04/26 14:49:29;;;;;;;5.60;2.47;;;14.10;95.30;;;;;;5070851;28;20110;-61
2022/04/26 14:51:55;;;;;;;5.65;2.42;;;14.00;94.70;;;;;;5071188;28;20044;-61
2022/04/26 14:54:21;;;;;;;6.05;2.60;;;13.90;95.30;;;;;;5070870;28;20102;-61
2022/04/26 14:56:48;;;;;;;6.63;2.55;;;13.80;96.20;;;;;;5070222;28;20049;-62
2022/04/26 14:59:17;;;;;;;5.10;2.70;;;13.80;96.60;;;;;;5071092;28;20044;-62
2022/04/26 15:01:48;;;;;;;6.18;2.60;;;13.70;95.90;;;;;;5069951;28;20106;-62
2022/04/26 15:04:21;;;;;;;5.15;2.97;;;13.60;96.00;;;;;;5071268;28;20045;-63
2022/04/26 15:06:48;;;;;;;6.38;2.67;;;13.60;95.70;;;;;;5070059;28;20054;-62
2022/04/26 15:17:28;;;;;;;6.95;2.80;;;13.50;95.60;;;;;;5070653;28;20052;-61
2022/04/26 15:19:54;;;;;;;4.90;2.75;;;13.50;95.40;;;;;;5070868;28;20443;-62
2022/04/26 15:22:20;;;;;;;8.18;3.03;;;13.50;95.60;;;;;;5072760;28;20135;-63
2022/04/26 15:24:47;;;;;;;7.53;2.85;;;13.60;96.00;;;;;;5074623;28;20052;-64
2022/04/26 15:27:15;;;;;;;8.98;3.38;;;13.60;96.40;;;;;;5074669;28;20459;-61
2022/04/26 15:29:41;;;;;;;7.53;2.83;;;13.60;96.40;;;;;;5074121;28;20055;-62
2022/04/26 15:32:08;;;;;;;7.55;2.90;;;13.50;96.70;;;;;;5073518;28;20123;-63
2022/04/26 15:34:33;;;;;;;7.50;2.70;;;13.30;96.40;;;;;;5074089;28;20124;-62
2022/04/26 15:36:59;;;;;;;8.95;2.90;;;13.10;96.50;;;;;;5072923;28;20132;-62
2022/04/26 15:39:25;;;;;;;6.22;2.80;;;13.00;96.40;;;;;;5072965;28;20040;-62
2022/04/26 15:41:51;;;;;;;6.55;2.70;;;13.00;95.90;;;;;;5074232;28;20048;-62
2022/04/26 15:44:17;;;;;;;4.32;2.67;;;12.90;96.00;;;;;;5073912;28;20464;-62
2022/04/26 15:46:43;;;;;;;5.28;2.60;;;12.70;96.00;;;;;;5074042;28;20060;-62
2022/04/26 15:49:10;;;;;;;6.47;2.78;;;12.80;95.90;;;;;;5074264;28;20078;-61
2022/04/26 15:51:36;;;;;;;6.93;2.95;;;12.60;95.50;;;;;;5072616;28;20124;-62
2022/04/26 15:54:02;;;;;;;5.93;3.00;;;12.60;95.90;;;;;;5074280;28;20189;-62
2022/04/26 15:56:28;;;;;;;6.72;3.13;;;12.50;95.90;;;;;;5073675;28;20087;-62
2022/04/26 15:58:54;;;;;;;9.30;2.80;;;12.60;95.60;;;;;;5073054;28;20437;-62
2022/04/26 16:01:20;;;;;;;5.80;2.63;;;12.60;95.30;;;;;;5074099;28;20041;-61
2022/04/26 16:03:45;;;;;;;7.03;2.72;;;12.40;95.80;;;;;;5072813;28;20083;-62
2022/04/26 16:06:11;;;;;;;8.63;2.63;;;12.30;96.40;;;;;;5072677;28;20046;-62
2022/04/26 16:08:37;;;;;;;7.55;2.75;;;12.30;96.60;;;;;;5073561;28;20045;-61
2022/04/26 16:22:02;;;;;;;5.55;2.67;;;12.10;98.30;;;;;;5072416;28;20110;-62
2022/04/26 16:24:28;;;;;;;7.00;2.83;;;12.20;98.20;;;;;;5073270;28;20131;-63
2022/04/26 16:26:55;;;;;;;6.22;2.50;;;12.30;98.10;;;;;;5073934;28;20083;-61
2022/04/26 16:29:21;;;;;;;6.47;2.85;;;12.30;98.00;;;;;;5072152;28;20080;-62
2022/04/26 16:31:48;;;;;;;8.23;2.80;;;12.30;97.60;;;;;;5073053;28;20052;-62
2022/04/26 16:34:13;;;;;;;7.68;3.33;;;12.20;97.80;;;;;;5072156;28;20044;-62
2022/04/26 16:36:39;;;;;;;7.10;3.00;;;12.10;98.00;;;;;;5072884;28;20079;-62
2022/04/26 16:39:06;;;;;;;7.43;2.88;;;12.10;98.00;;;;;;5073722;28;20045;-62
2022/04/26 16:41:32;;;;;;;7.88;3.00;;;12.10;97.20;;;;;;5071954;28;20044;-62
2022/04/26 16:43:58;;;;;;;9.88;2.65;;;12.10;97.00;;;;;;5072199;28;20405;-61
2022/04/26 16:46:25;;;;;;;6.68;2.70;;;12.00;96.70;;;;;;5072171;28;20195;-63
2022/04/26 16:48:51;;;;;;;7.40;2.60;;;12.00;96.80;;;;;;5072737;28;20048;-62
2022/04/26 16:51:19;;;;;;;8.20;2.90;;;11.90;96.60;;;;;;5072156;28;20403;-61
2022/04/26 16:53:46;;;;;;;6.75;2.88;;;11.90;96.80;;;;;;5072776;28;20048;-62
2022/04/26 16:56:12;;;;;;;5.45;2.55;;;11.80;96.90;;;;;;5073100;28;20082;-62
2022/04/26 16:58:38;;;;;;;7.55;2.90;;;11.80;97.00;;;;;;5054916;28;20521;-62
2022/04/26 17:01:04;;;;;;;5.57;2.80;;;11.80;97.20;;;;;;5073176;28;20133;-62
2022/04/26 17:03:30;;;;;;;5.15;2.50;;;11.80;97.20;;;;;;5055339;28;20045;-62
2022/04/26 17:05:56;;;;;;;7.38;2.92;;;11.80;97.30;;;;;;5072442;28;20394;-62
2022/04/26 17:08:21;;;;;;;6.05;2.80;;;11.80;97.50;;;;;;5072724;28;20076;-62
2022/04/26 17:10:48;;;;;;;4.95;2.22;;;11.70;97.90;;;;;;5054436;28;20102;-61
2022/04/26 17:13:14;;;;;;;5.38;2.30;;;11.60;98.10;;;;;;5071656;28;20147;-61
2022/04/26 17:15:40;;;;;;;9.98;2.60;;;11.50;98.50;;;;;;5072102;28;20088;-62
2022/04/26 17:18:07;;;;;;;9.02;2.85;;;11.50;98.70;;;;;;5071287;28;20052;-62
2022/04/26 17:20:34;;;;;;;5.82;2.40;;;11.40;99.00;;;;;;5071399;28;20060;-62